createdAt,value
2018-03-11T00:00:23.557Z,11.64
2018-03-11T00:02:49.487Z,11.73
2018-03-11T00:05:15.448Z,11.73
2018-03-11T00:07:41.389Z,11.48
2018-03-11T00:10:07.352Z,11.39
2018-03-11T00:12:33.325Z,11.63
2018-03-11T00:14:59.283Z,11.74
2018-03-11T00:17:25.215Z,11.66
2018-03-11T00:19:51.173Z,11.52
2018-03-11T00:22:17.130Z,11.41
2018-03-11T00:24:43.088Z,11.39
2018-03-11T00:27:09.099Z,11.48
2018-03-11T00:29:35.035Z,11.13
2018-03-11T00:32:00.978Z,11.28
2018-03-11T00:34:26.942Z,11.09
2018-03-11T00:36:52.889Z,11.20
2018-03-11T00:39:18.838Z,11.19
2018-03-11T00:41:44.795Z,11.37
2018-03-11T00:44:10.724Z,11.36
2018-03-11T00:46:36.677Z,11.59
2018-03-11T00:49:02.612Z,11.61
2018-03-11T00:51:28.552Z,11.32
2018-03-11T00:53:54.494Z,11.47
2018-03-11T00:56:20.460Z,11.32
2018-03-11T00:58:46.444Z,11.27
2018-03-11T01:01:12.438Z,11.21
2018-03-11T01:03:38.366Z,11.11
2018-03-11T01:06:04.298Z,11.21
2018-03-11T01:08:30.236Z,11.14
2018-03-11T01:10:56.182Z,11.25
2018-03-11T01:13:22.106Z,11.35
2018-03-11T01:15:48.026Z,11.36
2018-03-11T01:18:13.948Z,11.27
2018-03-11T01:20:39.902Z,11.17
2018-03-11T01:23:05.834Z,11.15
2018-03-11T01:25:31.790Z,11.08
2018-03-11T01:27:57.738Z,11.19
2018-03-11T01:30:23.666Z,11.24
2018-03-11T01:32:49.586Z,11.38
2018-03-11T01:35:15.533Z,11.14
2018-03-11T01:37:41.470Z,11.18
2018-03-11T01:40:07.577Z,11.28
2018-03-11T01:42:33.563Z,11.31
2018-03-11T01:44:59.523Z,11.25
2018-03-11T01:47:25.442Z,11.20
2018-03-11T01:49:51.382Z,11.09
2018-03-11T01:52:17.354Z,11.08
2018-03-11T01:54:43.292Z,11.07
2018-03-11T01:57:09.251Z,11.08
2018-03-11T01:59:35.182Z,11.03
2018-03-11T02:02:01.132Z,11.02
2018-03-11T02:04:27.079Z,11.21
2018-03-11T02:06:53.030Z,11.28
2018-03-11T02:09:18.960Z,11.27
2018-03-11T02:11:44.903Z,11.14
2018-03-11T02:14:10.876Z,11.09
2018-03-11T02:16:36.835Z,11.31
2018-03-11T02:19:02.786Z,11.33
2018-03-11T02:21:28.739Z,11.27
2018-03-11T02:23:54.682Z,11.54
2018-03-11T02:26:20.609Z,11.41
2018-03-11T02:28:46.550Z,11.37
2018-03-11T02:31:12.515Z,11.05
2018-03-11T02:33:38.437Z,11.06
2018-03-11T02:36:04.366Z,11.01
2018-03-11T02:38:30.287Z,11.16
2018-03-11T02:40:56.249Z,11.18
2018-03-11T02:43:22.187Z,11.33
2018-03-11T02:45:48.158Z,11.27
2018-03-11T02:48:14.093Z,11.33
2018-03-11T02:50:40.043Z,11.44
2018-03-11T02:53:05.993Z,11.62
2018-03-11T02:55:31.933Z,11.57
2018-03-11T02:57:57.866Z,11.51
2018-03-11T03:00:23.783Z,11.31
2018-03-11T03:02:49.717Z,11.45
2018-03-11T03:05:15.657Z,11.41
2018-03-11T03:07:41.605Z,11.34
2018-03-11T03:10:07.530Z,11.31
2018-03-11T03:12:33.443Z,11.43
2018-03-11T03:14:59.377Z,11.47
2018-03-11T03:17:25.317Z,11.56
2018-03-11T03:19:51.244Z,11.68
2018-03-11T03:22:17.207Z,11.64
2018-03-11T03:24:43.123Z,11.58
2018-03-11T03:27:09.071Z,11.60
2018-03-11T03:29:35.008Z,11.68
2018-03-11T03:32:00.934Z,11.34
2018-03-11T03:34:26.879Z,11.38
2018-03-11T03:36:52.811Z,11.24
2018-03-11T03:39:18.733Z,11.36
2018-03-11T03:41:44.671Z,11.27
2018-03-11T03:44:10.612Z,11.41
2018-03-11T03:46:36.562Z,11.35
2018-03-11T03:49:02.508Z,11.32
2018-03-11T03:51:28.459Z,11.47
2018-03-11T03:53:54.398Z,11.54
2018-03-11T03:56:20.409Z,11.37
2018-03-11T03:58:46.351Z,11.29
2018-03-11T04:01:12.291Z,11.45
2018-03-11T04:03:38.223Z,11.52
2018-03-11T04:06:04.158Z,11.58
2018-03-11T04:08:30.083Z,11.31
2018-03-11T04:10:56.025Z,11.43
2018-03-11T04:13:21.938Z,11.49
2018-03-11T04:15:47.859Z,11.49
2018-03-11T04:18:13.924Z,11.49
2018-03-11T04:20:39.850Z,11.47
2018-03-11T04:23:05.767Z,11.51
2018-03-11T04:25:31.717Z,11.46
2018-03-11T04:27:57.647Z,11.57
2018-03-11T04:30:23.605Z,11.55
2018-03-11T04:32:49.573Z,11.37
2018-03-11T04:35:15.518Z,11.51
2018-03-11T04:37:41.456Z,11.62
2018-03-11T04:40:07.379Z,11.68
2018-03-11T04:42:33.303Z,11.57
2018-03-11T04:44:59.247Z,11.67
2018-03-11T04:47:25.187Z,11.59
2018-03-11T04:49:51.105Z,11.76
2018-03-11T04:52:17.074Z,11.61
2018-03-11T04:54:43.036Z,11.69
2018-03-11T04:57:08.995Z,11.69
2018-03-11T04:59:34.938Z,11.66
2018-03-11T05:02:00.863Z,11.70
2018-03-11T05:04:26.796Z,11.70
2018-03-11T05:06:52.745Z,11.49
2018-03-11T05:09:18.688Z,11.59
2018-03-11T05:11:44.605Z,11.37
2018-03-11T05:14:10.541Z,11.65
2018-03-11T05:16:36.483Z,11.62
2018-03-11T05:19:02.399Z,11.44
2018-03-11T05:21:28.342Z,11.48
2018-03-11T05:23:54.286Z,11.30
2018-03-11T05:26:20.203Z,11.31
2018-03-11T05:28:46.117Z,11.28
2018-03-11T05:31:12.098Z,11.31
2018-03-11T05:33:38.049Z,11.21
2018-03-11T05:36:03.977Z,11.19
2018-03-11T05:38:29.910Z,11.25
2018-03-11T05:40:55.839Z,11.29
2018-03-11T05:43:21.763Z,11.34
2018-03-11T05:45:47.800Z,11.19
2018-03-11T05:48:13.752Z,11.20
2018-03-11T05:50:39.710Z,11.15
2018-03-11T05:53:05.654Z,10.94
2018-03-11T05:55:31.586Z,10.96
2018-03-11T05:57:57.523Z,10.92
2018-03-11T06:00:23.454Z,10.85
2018-03-11T06:02:49.393Z,10.72
2018-03-11T06:05:15.338Z,10.55
2018-03-11T06:07:41.292Z,10.48
2018-03-11T06:10:07.269Z,10.71
2018-03-11T06:12:33.186Z,10.74
2018-03-11T06:14:59.206Z,10.80
2018-03-11T06:17:25.280Z,10.72
2018-03-11T06:19:51.218Z,10.83
2018-03-11T06:22:17.154Z,10.94
2018-03-11T06:24:43.086Z,11.06
2018-03-11T06:27:09.061Z,11.16
2018-03-11T06:29:35.025Z,10.96
2018-03-11T06:32:00.964Z,10.76
2018-03-11T06:34:26.890Z,10.92
2018-03-11T06:36:52.857Z,11.15
2018-03-11T06:39:18.803Z,11.15
2018-03-11T06:41:44.746Z,11.19
2018-03-11T06:44:10.711Z,11.33
2018-03-11T06:46:36.645Z,11.36
2018-03-11T06:49:02.590Z,11.06
2018-03-11T06:51:28.552Z,11.04
2018-03-11T06:53:54.593Z,11.07
2018-03-11T06:56:20.627Z,11.17
2018-03-11T06:58:46.638Z,11.28
2018-03-11T07:01:12.585Z,11.29
2018-03-11T07:03:38.608Z,11.14
2018-03-11T07:06:04.547Z,11.19
2018-03-11T07:08:30.514Z,10.93
2018-03-11T07:10:56.435Z,11.14
2018-03-11T07:13:22.384Z,11.21
2018-03-11T07:15:52.154Z,11.11
2018-03-11T07:18:18.736Z,11.01
2018-03-11T07:20:44.666Z,11.25
2018-03-11T07:23:10.622Z,11.21
2018-03-11T07:25:36.633Z,11.20
2018-03-11T07:28:02.692Z,11.33
2018-03-11T07:30:28.643Z,11.23
2018-03-11T07:32:54.574Z,11.33
2018-03-11T07:35:20.500Z,11.24
2018-03-11T07:37:46.425Z,11.30
2018-03-11T07:40:12.448Z,11.32
2018-03-11T07:42:38.386Z,11.20
2018-03-11T07:45:04.344Z,11.33
2018-03-11T07:47:30.308Z,11.22
2018-03-11T07:49:56.266Z,11.35
2018-03-11T07:52:22.186Z,11.34
2018-03-11T07:54:48.105Z,11.42
2018-03-11T07:57:14.043Z,11.53
2018-03-11T07:59:39.992Z,11.44
2018-03-11T08:02:05.944Z,11.55
2018-03-11T08:04:32.005Z,11.50
2018-03-11T08:06:57.957Z,11.57
2018-03-11T08:09:23.882Z,11.64
2018-03-11T08:11:49.911Z,11.75
2018-03-11T08:14:15.837Z,11.87
2018-03-11T08:16:41.788Z,12.34
2018-03-11T08:19:07.707Z,12.56
2018-03-11T08:21:33.700Z,12.62
2018-03-11T08:23:59.729Z,12.92
2018-03-11T08:26:25.684Z,12.66
2018-03-11T08:28:51.610Z,12.93
2018-03-11T08:31:17.600Z,12.97
2018-03-11T08:33:43.561Z,13.08
2018-03-11T08:36:09.558Z,13.40
2018-03-11T08:38:35.478Z,13.46
2018-03-11T08:41:01.428Z,13.52
2018-03-11T08:43:27.347Z,13.73
2018-03-11T08:45:53.302Z,13.88
2018-03-11T08:48:20.865Z,13.90
2018-03-11T08:50:46.880Z,13.91
2018-03-11T08:53:12.816Z,13.91
2018-03-11T08:55:38.866Z,13.95
2018-03-11T08:58:04.879Z,14.01
2018-03-11T09:00:30.812Z,14.19
2018-03-11T09:02:56.768Z,14.25
2018-03-11T09:05:22.712Z,14.25
2018-03-11T09:07:49.773Z,14.24
2018-03-11T09:10:15.855Z,14.49
2018-03-11T09:12:41.789Z,14.45
2018-03-11T09:15:07.777Z,14.54
2018-03-11T09:17:33.729Z,14.57
2018-03-11T09:19:59.671Z,14.68
2018-03-11T09:22:25.744Z,14.67
2018-03-11T09:24:51.693Z,14.85
2018-03-11T09:27:17.638Z,14.76
2018-03-11T09:29:43.589Z,14.77
2018-03-11T09:32:09.549Z,14.62
2018-03-11T09:34:35.515Z,14.62
2018-03-11T09:37:01.439Z,14.75
2018-03-11T09:39:27.389Z,14.75
2018-03-11T09:41:53.369Z,14.78
2018-03-11T09:44:19.325Z,14.77
2018-03-11T09:46:45.273Z,14.87
2018-03-11T09:49:11.222Z,14.85
2018-03-11T09:51:37.177Z,14.91
2018-03-11T09:54:03.106Z,15.17
2018-03-11T09:56:29.102Z,15.16
2018-03-11T09:58:55.093Z,15.00
2018-03-11T10:01:21.078Z,14.83
2018-03-11T10:03:47.037Z,14.94
2018-03-11T10:06:13.031Z,15.00
2018-03-11T10:08:38.985Z,15.05
2018-03-11T10:11:04.950Z,15.15
2018-03-11T10:13:30.944Z,15.09
2018-03-11T10:15:56.848Z,15.01
2018-03-11T10:18:22.789Z,14.99
2018-03-11T10:20:48.716Z,15.03
2018-03-11T10:23:14.658Z,15.10
2018-03-11T10:25:40.625Z,15.05
2018-03-11T10:28:06.918Z,15.22
2018-03-11T10:30:32.873Z,15.31
2018-03-11T10:32:59.862Z,15.23
2018-03-11T10:35:27.041Z,15.25
2018-03-11T10:37:53.628Z,15.31
2018-03-11T10:40:20.454Z,15.33
2018-03-11T10:42:48.026Z,15.40
2018-03-11T10:45:15.961Z,15.39
2018-03-11T10:47:42.893Z,15.40
2018-03-11T10:50:08.906Z,15.47
2018-03-11T10:52:35.940Z,15.53
2018-03-11T10:55:02.174Z,15.51
2018-03-11T10:57:28.145Z,15.57
2018-03-11T10:59:54.348Z,15.54
2018-03-11T11:02:20.512Z,15.47
2018-03-11T11:04:46.912Z,15.61
2018-03-11T11:07:13.626Z,15.85
2018-03-11T11:09:39.664Z,15.95
2018-03-11T11:12:05.680Z,16.15
2018-03-11T11:14:33.110Z,16.08
2018-03-11T11:17:00.109Z,16.06
2018-03-11T11:19:26.042Z,16.01
2018-03-11T11:21:52.257Z,16.09
2018-03-11T11:24:19.101Z,15.99
2018-03-11T11:26:45.041Z,15.94
2018-03-11T11:29:10.989Z,15.89
2018-03-11T11:31:36.933Z,16.18
2018-03-11T11:34:02.916Z,16.09
2018-03-11T11:36:28.903Z,16.25
2018-03-11T11:38:54.857Z,16.28
2018-03-11T11:41:20.822Z,16.10
2018-03-11T11:43:46.766Z,16.23
2018-03-11T11:46:12.721Z,16.46
2018-03-11T11:48:38.831Z,16.48
2018-03-11T11:51:04.739Z,16.61
2018-03-11T11:53:30.674Z,16.68
2018-03-11T11:55:56.600Z,16.47
2018-03-11T11:58:22.518Z,16.40
2018-03-11T12:00:48.716Z,16.68
2018-03-11T12:03:14.714Z,16.46
2018-03-11T12:05:40.732Z,16.58
2018-03-11T12:08:07.793Z,16.44
2018-03-11T12:10:33.761Z,16.61
2018-03-11T12:12:59.715Z,16.77
2018-03-11T12:15:25.881Z,16.83
2018-03-11T12:17:51.862Z,16.76
2018-03-11T12:20:17.893Z,16.62
2018-03-11T12:22:43.865Z,16.64
2018-03-11T12:25:09.969Z,16.64
2018-03-11T12:27:36.003Z,16.60
2018-03-11T12:30:01.959Z,16.66
2018-03-11T12:32:27.913Z,16.78
2018-03-11T12:34:53.878Z,16.76
2018-03-11T12:37:20.033Z,16.55
2018-03-11T12:39:45.998Z,16.80
2018-03-11T12:42:11.993Z,16.73
2018-03-11T12:44:37.959Z,16.57
2018-03-11T12:47:03.901Z,16.67
2018-03-11T12:49:29.874Z,16.66
2018-03-11T12:51:55.819Z,16.65
2018-03-11T12:54:21.797Z,16.52
2018-03-11T12:56:47.765Z,16.47
2018-03-11T12:59:13.727Z,16.52
2018-03-11T13:01:39.676Z,16.53
2018-03-11T13:04:05.631Z,16.59
2018-03-11T13:06:31.601Z,16.65
2018-03-11T13:08:57.579Z,16.58
2018-03-11T13:11:23.537Z,16.60
2018-03-11T13:13:49.499Z,16.52
2018-03-11T13:16:15.427Z,16.49
2018-03-11T13:18:41.363Z,16.52
2018-03-11T13:21:07.324Z,16.52
2018-03-11T13:23:33.273Z,16.54
2018-03-11T13:25:59.341Z,16.57
2018-03-11T13:28:25.290Z,16.60
2018-03-11T13:30:51.326Z,16.61
2018-03-11T13:33:17.293Z,16.67
2018-03-11T13:35:43.255Z,16.70
2018-03-11T13:38:09.173Z,16.70
2018-03-11T13:40:35.129Z,16.68
2018-03-11T13:43:01.153Z,16.67
2018-03-11T13:45:27.210Z,16.91
2018-03-11T13:47:53.255Z,16.80
2018-03-11T13:50:19.198Z,16.90
2018-03-11T13:52:45.161Z,16.87
2018-03-11T13:55:11.080Z,16.86
2018-03-11T13:57:37.021Z,17.00
2018-03-11T14:00:03.070Z,16.87
2018-03-11T14:02:29.029Z,16.97
2018-03-11T14:04:54.962Z,16.86
2018-03-11T14:07:20.889Z,16.90
2018-03-11T14:09:46.812Z,17.09
2018-03-11T14:12:12.806Z,17.05
2018-03-11T14:14:38.753Z,17.07
2018-03-11T14:17:05.848Z,16.99
2018-03-11T14:19:31.864Z,16.97
2018-03-11T14:21:57.791Z,16.95
2018-03-11T14:24:23.796Z,16.90
2018-03-11T14:26:49.750Z,16.88
2018-03-11T14:29:15.703Z,16.90
2018-03-11T14:31:41.786Z,16.79
2018-03-11T14:34:07.732Z,16.90
2018-03-11T14:36:33.662Z,16.97
2018-03-11T14:38:59.691Z,16.91
2018-03-11T14:41:25.665Z,16.87
2018-03-11T14:43:51.630Z,16.85
2018-03-11T14:46:17.562Z,16.91
2018-03-11T14:48:43.514Z,16.88
2018-03-11T14:51:09.447Z,16.83
2018-03-11T14:53:35.382Z,16.78
2018-03-11T14:56:01.318Z,16.83
2018-03-11T14:58:29.399Z,16.85
2018-03-11T15:00:55.328Z,16.78
2018-03-11T15:03:21.289Z,16.84
2018-03-11T15:05:47.229Z,16.86
2018-03-11T15:08:13.158Z,16.72
2018-03-11T15:10:39.079Z,16.51
2018-03-11T15:13:05.041Z,16.42
2018-03-11T15:15:30.984Z,16.43
2018-03-11T15:17:57.043Z,16.39
2018-03-11T15:20:22.969Z,16.36
2018-03-11T15:22:48.894Z,16.34
2018-03-11T15:25:14.903Z,16.28
2018-03-11T15:27:40.878Z,16.20
2018-03-11T15:30:06.802Z,16.23
2018-03-11T15:32:32.803Z,16.21
2018-03-11T15:34:58.751Z,16.14
2018-03-11T15:37:24.703Z,16.14
2018-03-11T15:39:50.632Z,16.15
2018-03-11T15:42:16.563Z,16.11
2018-03-11T15:44:42.513Z,16.09
2018-03-11T15:47:08.466Z,16.18
2018-03-11T15:49:34.433Z,16.14
2018-03-11T15:52:00.391Z,16.08
2018-03-11T15:54:26.326Z,15.98
2018-03-11T15:56:52.265Z,15.92
2018-03-11T15:59:18.215Z,15.97
2018-03-11T16:01:44.159Z,15.96
2018-03-11T16:04:10.123Z,16.02
2018-03-11T16:06:36.071Z,15.96
2018-03-11T16:09:02.023Z,16.04
2018-03-11T16:11:27.952Z,15.91
2018-03-11T16:13:53.903Z,15.85
2018-03-11T16:16:19.854Z,15.84
2018-03-11T16:18:45.833Z,15.79
2018-03-11T16:21:11.831Z,15.81
2018-03-11T16:23:37.825Z,15.73
2018-03-11T16:26:03.815Z,15.70
2018-03-11T16:28:29.803Z,15.63
2018-03-11T16:30:55.728Z,15.59
2018-03-11T16:33:21.698Z,15.51
2018-03-11T16:35:47.644Z,15.59
2018-03-11T16:38:13.662Z,15.69
2018-03-11T16:40:39.635Z,15.65
2018-03-11T16:43:06.666Z,15.65
2018-03-11T16:45:32.596Z,15.64
2018-03-11T16:47:58.541Z,15.63
2018-03-11T16:50:24.472Z,15.59
2018-03-11T16:52:50.444Z,15.64
2018-03-11T16:55:16.382Z,15.59
2018-03-11T16:57:42.366Z,15.63
2018-03-11T17:00:08.304Z,15.61
2018-03-11T17:02:34.261Z,15.55
2018-03-11T17:05:00.263Z,15.57
2018-03-11T17:07:26.229Z,15.58
2018-03-11T17:09:52.157Z,15.66
2018-03-11T17:12:18.154Z,15.54
2018-03-11T17:14:44.139Z,15.57
2018-03-11T17:17:10.309Z,15.49
2018-03-11T17:19:36.337Z,15.43
2018-03-11T17:22:02.287Z,15.50
2018-03-11T17:24:28.250Z,15.48
2018-03-11T17:26:54.209Z,15.41
2018-03-11T17:29:20.178Z,15.41
2018-03-11T17:31:46.142Z,15.38
2018-03-11T17:34:12.088Z,15.42
2018-03-11T17:36:38.034Z,15.39
2018-03-11T17:39:06.862Z,15.43
2018-03-11T17:41:32.808Z,15.27
2018-03-11T17:43:58.761Z,15.30
2018-03-11T17:46:24.698Z,15.32
2018-03-11T17:48:50.690Z,15.26
2018-03-11T17:51:16.627Z,15.33
2018-03-11T17:53:42.680Z,15.29
2018-03-11T17:56:08.618Z,15.12
2018-03-11T17:58:34.569Z,15.23
2018-03-11T18:01:00.519Z,15.14
2018-03-11T18:03:26.502Z,15.24
2018-03-11T18:05:52.488Z,15.22
2018-03-11T18:08:18.520Z,15.14
2018-03-11T18:10:44.446Z,15.18
2018-03-11T18:13:10.383Z,15.16
2018-03-11T18:15:36.318Z,14.90
2018-03-11T18:18:02.293Z,14.93
2018-03-11T18:20:28.263Z,15.04
2018-03-11T18:22:54.216Z,14.90
2018-03-11T18:25:20.176Z,14.94
2018-03-11T18:27:46.153Z,14.98
2018-03-11T18:30:12.119Z,14.87
2018-03-11T18:32:39.191Z,14.94
2018-03-11T18:35:05.211Z,14.94
2018-03-11T18:37:31.218Z,15.05
2018-03-11T18:39:57.182Z,14.87
2018-03-11T18:42:23.139Z,14.78
2018-03-11T18:44:49.096Z,14.81
2018-03-11T18:47:15.023Z,14.80
2018-03-11T18:49:40.980Z,14.78
2018-03-11T18:52:06.997Z,14.81
2018-03-11T18:54:32.951Z,14.76
2018-03-11T18:56:58.908Z,14.65
2018-03-11T18:59:24.869Z,14.68
2018-03-11T19:01:50.897Z,14.74
2018-03-11T19:04:16.900Z,14.66
2018-03-11T19:06:42.839Z,14.67
2018-03-11T19:09:10.177Z,14.71
2018-03-11T19:11:36.304Z,14.72
2018-03-11T19:14:02.259Z,14.65
2018-03-11T19:16:28.201Z,14.60
2018-03-11T19:18:54.171Z,14.57
2018-03-11T19:21:20.115Z,14.53
2018-03-11T19:23:46.115Z,14.51
2018-03-11T19:26:12.083Z,14.48
2018-03-11T19:28:38.055Z,14.43
2018-03-11T19:31:03.988Z,14.41
2018-03-11T19:33:29.928Z,14.34
2018-03-11T19:35:55.870Z,14.50
2018-03-11T19:38:21.811Z,14.40
2018-03-11T19:40:47.794Z,14.42
2018-03-11T19:43:13.795Z,14.43
2018-03-11T19:45:39.755Z,14.44
2018-03-11T19:48:05.734Z,14.43
2018-03-11T19:50:31.672Z,14.39
2018-03-11T19:52:57.616Z,14.34
2018-03-11T19:55:23.561Z,14.26
2018-03-11T19:57:49.545Z,14.36
2018-03-11T20:00:15.472Z,14.20
2018-03-11T20:02:41.451Z,14.30
2018-03-11T20:05:07.406Z,14.31
2018-03-11T20:07:33.401Z,14.18
2018-03-11T20:09:59.367Z,14.12
2018-03-11T20:12:25.319Z,14.16
2018-03-11T20:14:51.260Z,14.21
2018-03-11T20:17:17.205Z,14.18
2018-03-11T20:19:43.235Z,14.13
2018-03-11T20:22:09.187Z,13.97
2018-03-11T20:24:35.151Z,14.08
2018-03-11T20:27:01.104Z,14.07
2018-03-11T20:29:27.074Z,14.12
2018-03-11T20:31:53.013Z,14.09
2018-03-11T20:34:19.954Z,14.01
2018-03-11T20:36:45.878Z,13.93
2018-03-11T20:39:11.846Z,13.80
2018-03-11T20:41:37.860Z,14.02
2018-03-11T20:44:03.838Z,14.00
2018-03-11T20:46:29.766Z,13.90
2018-03-11T20:48:55.737Z,13.83
2018-03-11T20:51:21.686Z,13.74
2018-03-11T20:53:47.661Z,13.74
2018-03-11T20:56:13.596Z,13.72
2018-03-11T20:58:39.538Z,13.75
2018-03-11T21:01:05.484Z,13.63
2018-03-11T21:03:31.442Z,13.77
2018-03-11T21:05:57.422Z,13.85
2018-03-11T21:08:23.358Z,13.90
2018-03-11T21:10:49.295Z,13.80
2018-03-11T21:13:15.236Z,13.65
2018-03-11T21:15:41.285Z,13.77
2018-03-11T21:18:07.260Z,13.74
2018-03-11T21:20:33.213Z,13.58
2018-03-11T21:22:59.198Z,13.57
2018-03-11T21:28:05.445Z,13.57
2018-03-11T21:30:31.506Z,13.56
2018-03-11T21:32:57.444Z,13.40
2018-03-11T21:35:23.368Z,13.56
2018-03-11T21:37:49.318Z,13.61
2018-03-11T21:40:15.262Z,13.62
2018-03-11T21:42:41.198Z,13.57
2018-03-11T21:45:07.145Z,13.48
2018-03-11T21:47:33.094Z,13.44
2018-03-11T21:49:59.019Z,13.41
2018-03-11T21:52:24.996Z,13.64
2018-03-11T21:54:50.922Z,13.52
2018-03-11T21:57:16.881Z,13.67
2018-03-11T21:59:42.802Z,13.75
2018-03-11T22:02:08.802Z,13.68
2018-03-11T22:04:34.788Z,13.61
2018-03-11T22:07:00.729Z,13.55
2018-03-11T22:09:26.675Z,13.71
2018-03-11T22:11:52.628Z,13.64
2018-03-11T22:14:18.590Z,13.75
2018-03-11T22:16:44.520Z,13.79
2018-03-11T22:19:10.467Z,13.78
2018-03-11T22:21:36.410Z,13.78
2018-03-11T22:24:02.353Z,13.83
2018-03-11T22:26:28.307Z,13.75
2018-03-11T22:28:54.256Z,13.59
2018-03-11T22:31:20.183Z,13.63
2018-03-11T22:33:46.133Z,13.39
2018-03-11T22:36:12.075Z,13.44
2018-03-11T22:38:37.998Z,13.37
2018-03-11T22:41:03.941Z,13.29
2018-03-11T22:43:29.893Z,13.24
2018-03-11T22:45:55.841Z,13.14
2018-03-11T22:48:21.762Z,13.25
2018-03-11T22:50:47.684Z,13.00
2018-03-11T22:53:13.632Z,13.19
2018-03-11T22:55:39.577Z,13.36
2018-03-11T22:58:05.533Z,13.38
2018-03-11T23:00:31.461Z,13.36
2018-03-11T23:02:57.405Z,13.33
2018-03-11T23:05:23.330Z,13.39
2018-03-11T23:07:49.281Z,13.39
2018-03-11T23:10:15.214Z,13.32
2018-03-11T23:12:41.140Z,13.32
2018-03-11T23:15:07.082Z,13.50
2018-03-11T23:17:33.031Z,13.46
2018-03-11T23:19:58.977Z,13.54
2018-03-11T23:22:24.904Z,13.68
2018-03-11T23:24:50.823Z,13.56
2018-03-11T23:27:16.741Z,13.65
2018-03-11T23:29:42.659Z,13.32
2018-03-11T23:32:08.623Z,13.32
2018-03-11T23:34:34.545Z,13.40
2018-03-11T23:37:00.473Z,13.20
2018-03-11T23:39:26.401Z,13.34
2018-03-11T23:41:52.337Z,13.13
2018-03-11T23:44:18.265Z,13.38
2018-03-11T23:46:44.187Z,13.38
2018-03-11T23:49:10.137Z,13.34
2018-03-11T23:51:36.089Z,13.16
2018-03-11T23:54:02.030Z,13.36
2018-03-11T23:56:27.978Z,13.39
2018-03-11T23:58:53.923Z,13.23
